Time;durP1;ratioP1;P1;durP2;ratioP2;P2;SDS_P1;SDS_P2;PMS_P1;PMS_P2;Temp;Humidity;BMP_temperature;BMP_pressure;BME280_temperature;BME280_humidity;BME280_pressure;Samples;Min_cycle;Max_cycle;Signal;HPM_P1;HPM_P2
2021/06/23 00:00:28;;;;;;;4.25;2.38;;;12.80;99.90;;;;;;5013771;28;20026;-73
2021/06/23 00:02:54;;;;;;;3.05;1.75;;;12.80;99.90;;;;;;5014174;28;20471;-73
2021/06/23 00:05:20;;;;;;;5.82;2.72;;;12.70;99.90;;;;;;5013861;28;20026;-73
2021/06/23 00:07:46;;;;;;;3.42;1.75;;;12.70;99.90;;;;;;4996075;28;20033;-73
2021/06/23 00:10:13;;;;;;;5.63;2.22;;;12.70;99.90;;;;;;5013757;28;20022;-73
2021/06/23 00:12:39;;;;;;;5.95;2.15;;;12.70;99.90;;;;;;5013645;28;20022;-73
2021/06/23 00:15:06;;;;;;;7.18;2.45;;;12.70;99.90;;;;;;5013627;28;20472;-73
2021/06/23 00:17:32;;;;;;;9.18;2.25;;;12.70;99.90;;;;;;5014129;28;20100;-73
2021/06/23 00:19:57;;;;;;;10.35;2.22;;;12.60;99.90;;;;;;4996243;28;20105;-73
2021/06/23 00:22:23;;;;;;;8.75;2.45;;;12.60;99.90;;;;;;5013811;28;20022;-73
2021/06/23 00:24:49;;;;;;;7.10;2.10;;;12.70;99.90;;;;;;4995925;28;20056;-72
2021/06/23 00:27:15;;;;;;;7.32;2.88;;;12.70;99.90;;;;;;5013518;28;20494;-73
2021/06/23 00:29:40;;;;;;;9.52;1.90;;;12.70;99.90;;;;;;5013399;28;20455;-73
2021/06/23 00:32:11;;;;;;;8.35;2.35;;;12.60;99.90;;;;;;5013945;28;20100;-73
2021/06/23 00:34:37;;;;;;;4.97;2.15;;;12.70;99.90;;;;;;5013810;28;20093;-73
2021/06/23 00:37:03;;;;;;;4.85;1.67;;;12.70;99.90;;;;;;4995719;28;20068;-73
2021/06/23 00:39:29;;;;;;;8.38;2.05;;;12.60;99.90;;;;;;4995772;28;20018;-73
2021/06/23 00:41:55;;;;;;;4.07;1.95;;;12.70;99.90;;;;;;5013421;28;20487;-73
2021/06/23 00:44:21;;;;;;;7.30;2.40;;;12.70;99.90;;;;;;5013645;28;20022;-73
2021/06/23 00:46:47;;;;;;;6.80;1.92;;;12.70;99.90;;;;;;5013251;28;20049;-73
2021/06/23 00:49:12;;;;;;;6.18;2.42;;;12.70;99.90;;;;;;5013263;28;20426;-72
2021/06/23 00:51:38;;;;;;;3.67;1.80;;;12.70;99.90;;;;;;4996635;28;20030;-73
2021/06/23 00:54:12;;;;;;;3.13;1.27;;;12.60;99.90;;;;;;4995675;28;20045;-73
2021/06/23 00:56:39;;;;;;;9.40;1.60;;;12.70;99.90;;;;;;4996129;28;20037;-72
2021/06/23 00:59:05;;;;;;;3.50;1.98;;;12.70;99.90;;;;;;5016959;28;20021;-73
2021/06/23 01:01:34;;;;;;;3.55;2.08;;;12.60;99.90;;;;;;5017031;28;20026;-73
2021/06/23 01:04:01;;;;;;;4.07;1.95;;;12.60;99.90;;;;;;5017204;28;20033;-72
2021/06/23 01:06:27;;;;;;;6.22;2.55;;;12.60;99.90;;;;;;5016878;28;20038;-72
2021/06/23 01:08:55;;;;;;;5.03;2.00;;;12.60;99.90;;;;;;5017237;28;20030;-72
2021/06/23 01:11:21;;;;;;;4.88;1.80;;;12.60;99.90;;;;;;4999004;28;20025;-72
2021/06/23 01:14:04;;;;;;;7.00;2.03;;;12.60;99.90;;;;;;5016738;28;20075;-72
2021/06/23 01:16:36;;;;;;;5.80;2.22;;;12.60;99.90;;;;;;5016708;28;20021;-72
2021/06/23 01:19:07;;;;;;;5.82;2.13;;;12.60;99.90;;;;;;4999233;28;20045;-72
2021/06/23 01:21:33;;;;;;;7.15;3.13;;;12.60;99.90;;;;;;5017127;28;20068;-72
2021/06/23 01:23:58;;;;;;;7.03;2.28;;;12.60;99.90;;;;;;4998947;28;20026;-72
2021/06/23 01:26:24;;;;;;;4.95;1.80;;;12.60;99.90;;;;;;5017033;28;20156;-72
2021/06/23 01:28:50;;;;;;;8.45;2.20;;;12.50;99.90;;;;;;5016348;28;20029;-73
2021/06/23 01:31:17;;;;;;;3.63;1.70;;;12.50;99.90;;;;;;5016441;28;20037;-73
2021/06/23 01:33:43;;;;;;;8.85;1.95;;;12.50;99.90;;;;;;5016440;28;20494;-73
2021/06/23 01:36:09;;;;;;;7.65;2.30;;;12.50;99.90;;;;;;5017009;28;20026;-73
2021/06/23 01:38:34;;;;;;;4.97;2.00;;;12.50;99.90;;;;;;5016881;28;20025;-73
2021/06/23 01:41:00;;;;;;;3.50;2.30;;;12.40;99.90;;;;;;5016592;28;20014;-73
2021/06/23 01:43:26;;;;;;;5.68;2.58;;;12.40;99.90;;;;;;5016387;28;20026;-73
2021/06/23 01:45:52;;;;;;;6.03;2.50;;;12.50;99.90;;;;;;5016706;28;20054;-73
2021/06/23 01:48:22;;;;;;;8.35;1.88;;;12.40;99.90;;;;;;5016645;28;20080;-75
2021/06/23 01:51:00;;;;;;;4.70;1.88;;;12.40;99.90;;;;;;5016505;28;20479;-73
2021/06/23 01:53:27;;;;;;;5.03;1.80;;;12.40;99.90;;;;;;5016798;28;20108;-74
2021/06/23 01:55:53;;;;;;;5.80;2.15;;;12.40;99.90;;;;;;5016471;28;20073;-73
2021/06/23 01:58:19;;;;;;;10.93;2.92;;;12.30;99.90;;;;;;4998558;28;20368;-74
2021/06/23 02:01:16;;;;;;;6.93;2.38;;;12.30;99.90;;;;;;5015997;28;20021;-73
2021/06/23 02:03:56;;;;;;;5.65;2.10;;;12.30;99.90;;;;;;5016546;28;20034;-73
2021/06/23 02:06:25;;;;;;;8.02;2.70;;;12.30;99.90;;;;;;5016268;28;20379;-73
2021/06/23 02:09:02;;;;;;;4.88;2.05;;;12.30;99.90;;;;;;5015486;28;20108;-74
2021/06/23 02:11:40;;;;;;;3.00;2.10;;;12.30;99.90;;;;;;5015861;28;20093;-73
2021/06/23 02:14:06;;;;;;;;;;;12.20;99.90;;;;;;5016678;28;20028;-73
2021/06/23 02:16:34;;;;;;;7.40;2.25;;;12.20;99.90;;;;;;5015821;28;20324;-74
2021/06/23 02:19:05;;;;;;;2.92;2.05;;;12.20;99.90;;;;;;5015735;28;20018;-74
2021/06/23 02:21:33;;;;;;;5.35;2.58;;;12.30;99.90;;;;;;4998168;28;20077;-74
2021/06/23 02:23:59;;;;;;;7.53;1.77;;;12.30;99.90;;;;;;5015726;28;20022;-74
2021/06/23 02:26:25;;;;;;;4.97;2.10;;;12.30;99.90;;;;;;5015513;28;20025;-74
2021/06/23 02:28:51;;;;;;;5.63;2.60;;;12.30;99.90;;;;;;4997994;28;20134;-74
2021/06/23 02:31:17;;;;;;;3.10;2.42;;;12.30;99.90;;;;;;5015393;28;20096;-74
2021/06/23 02:33:43;;;;;;;6.22;2.90;;;12.20;99.90;;;;;;5015770;28;20022;-73
2021/06/23 02:36:09;;;;;;;5.75;2.47;;;12.20;99.90;;;;;;5015388;28;20022;-73
2021/06/23 02:38:35;;;;;;;8.77;3.38;;;12.20;99.90;;;;;;4997656;28;20026;-73
2021/06/23 02:43:31;;;;;;;5.35;2.42;;;12.20;99.90;;;;;;5034015;28;20049;-73
2021/06/23 02:45:59;;;;;;;5.95;3.05;;;12.20;99.90;;;;;;5033484;28;20385;-73
2021/06/23 02:48:25;;;;;;;5.20;2.40;;;12.30;99.90;;;;;;5035055;28;20032;-73
2021/06/23 02:51:02;;;;;;;9.88;2.92;;;12.30;99.90;;;;;;5033376;28;20021;-73
2021/06/23 02:53:29;;;;;;;7.30;2.38;;;12.30;99.90;;;;;;5034922;28;20394;-73
2021/06/23 02:55:57;;;;;;;7.68;2.47;;;12.30;99.90;;;;;;5034610;28;20152;-73
2021/06/23 02:58:22;;;;;;;5.32;2.55;;;12.30;99.90;;;;;;5035060;28;20025;-73
2021/06/23 03:00:50;;;;;;;6.32;2.67;;;12.30;99.90;;;;;;5034473;28;20536;-73
2021/06/23 03:03:15;;;;;;;6.57;2.45;;;12.30;99.90;;;;;;5035848;28;20029;-73
2021/06/23 03:05:41;;;;;;;5.65;2.53;;;12.30;99.90;;;;;;5034116;28;20076;-73
2021/06/23 03:08:08;;;;;;;8.55;2.35;;;12.30;99.90;;;;;;5034453;28;20029;-73
2021/06/23 03:10:33;;;;;;;3.65;2.10;;;12.20;99.90;;;;;;5034665;28;20025;-73
2021/06/23 03:12:59;;;;;;;8.93;2.45;;;12.30;99.90;;;;;;5034341;28;20505;-73
2021/06/23 03:15:24;;;;;;;7.53;2.55;;;12.20;99.90;;;;;;5029777;28;20026;-73
2021/06/23 03:17:50;;;;;;;3.20;2.47;;;12.20;99.90;;;;;;5032828;28;20021;-73
2021/06/23 03:20:16;;;;;;;6.95;2.90;;;12.20;99.90;;;;;;5033530;28;20017;-73
2021/06/23 03:22:42;;;;;;;6.45;3.08;;;12.20;99.90;;;;;;5016465;28;20022;-73
2021/06/23 03:25:08;;;;;;;6.25;2.67;;;12.20;99.90;;;;;;5033318;28;20062;-73
2021/06/23 03:27:33;;;;;;;9.50;2.35;;;12.20;99.90;;;;;;5029123;28;20053;-73
2021/06/23 03:29:59;;;;;;;5.18;2.85;;;12.20;99.90;;;;;;5013337;28;20065;-73
2021/06/23 03:32:25;;;;;;;4.93;2.28;;;12.20;99.90;;;;;;5014495;28;20037;-73
2021/06/23 03:34:50;;;;;;;4.80;2.70;;;12.10;99.90;;;;;;5015421;28;20021;-73
2021/06/23 03:37:16;;;;;;;5.63;2.65;;;12.10;99.90;;;;;;5033939;28;20033;-73
2021/06/23 03:39:42;;;;;;;8.68;2.47;;;12.10;99.90;;;;;;5032839;28;20381;-73
2021/06/23 03:42:08;;;;;;;5.57;2.22;;;12.10;99.90;;;;;;5032702;28;20029;-73
2021/06/23 03:44:34;;;;;;;6.30;2.58;;;12.10;99.90;;;;;;5034321;28;20048;-73
2021/06/23 03:47:02;;;;;;;4.20;2.15;;;12.10;99.90;;;;;;5015950;28;20517;-73
2021/06/23 03:49:28;;;;;;;4.47;2.53;;;12.10;99.90;;;;;;5015782;28;20025;-73
2021/06/23 03:51:54;;;;;;;9.55;2.55;;;12.20;99.90;;;;;;5033617;28;20022;-73
2021/06/23 03:54:20;;;;;;;5.28;3.00;;;12.20;99.90;;;;;;5034295;28;20048;-73
2021/06/23 03:56:45;;;;;;;2.58;1.90;;;12.20;99.90;;;;;;5017756;28;20491;-73
2021/06/23 03:59:11;;;;;;;5.18;1.95;;;12.20;99.90;;;;;;5029776;28;20447;-73
2021/06/23 04:01:36;;;;;;;6.00;1.92;;;12.20;99.90;;;;;;5020157;28;20545;-74
2021/06/23 04:04:02;;;;;;;6.97;2.03;;;12.20;99.90;;;;;;5012709;28;20021;-74
2021/06/23 04:06:28;;;;;;;7.03;1.83;;;12.10;99.90;;;;;;5014366;28;20222;-74
2021/06/23 04:08:54;;;;;;;4.90;2.80;;;12.20;99.90;;;;;;5013800;28;20549;-74
2021/06/23 04:11:19;;;;;;;5.13;2.50;;;12.30;99.90;;;;;;5025526;28;20025;-74
2021/06/23 04:13:45;;;;;;;3.97;2.47;;;12.30;99.90;;;;;;5034136;28;20382;-74
2021/06/23 04:16:11;;;;;;;5.22;2.10;;;12.30;99.90;;;;;;5021655;28;20029;-74
2021/06/23 04:18:37;;;;;;;3.05;1.98;;;12.40;99.90;;;;;;4996225;28;20022;-73
2021/06/23 04:21:04;;;;;;;10.20;2.33;;;12.40;99.90;;;;;;4996350;28;20501;-73
2021/06/23 04:23:30;;;;;;;6.65;3.08;;;12.40;99.90;;;;;;5013825;28;20475;-74
2021/06/23 04:25:55;;;;;;;4.80;2.33;;;12.50;99.90;;;;;;5004221;28;20032;-73
2021/06/23 04:28:21;;;;;;;6.38;2.83;;;12.50;99.90;;;;;;5021888;28;20555;-73
2021/06/23 04:30:46;;;;;;;7.82;2.85;;;12.50;99.90;;;;;;4996167;28;20080;-74
2021/06/23 04:33:12;;;;;;;7.82;2.80;;;12.60;99.90;;;;;;5013375;28;20086;-74
2021/06/23 04:35:38;;;;;;;4.68;2.42;;;12.60;99.90;;;;;;5012424;28;20018;-73
2021/06/23 04:38:03;;;;;;;7.65;2.78;;;12.70;99.90;;;;;;5013493;28;20030;-74
2021/06/23 04:40:29;;;;;;;3.97;2.35;;;12.80;99.90;;;;;;5012321;28;20026;-74
2021/06/23 04:42:54;;;;;;;5.57;2.53;;;12.80;99.90;;;;;;5013512;28;20091;-74
2021/06/23 04:45:20;;;;;;;7.60;2.58;;;12.80;99.90;;;;;;5013667;28;20038;-74
2021/06/23 04:47:45;;;;;;;4.72;3.45;;;12.90;99.90;;;;;;4995694;28;20085;-74
2021/06/23 04:50:12;;;;;;;4.07;2.60;;;13.00;99.90;;;;;;4995695;28;20537;-74
2021/06/23 04:52:38;;;;;;;6.03;3.55;;;13.00;99.90;;;;;;5012126;28;20034;-74
2021/06/23 04:55:05;;;;;;;9.07;2.70;;;13.10;99.90;;;;;;5013330;28;20467;-74
2021/06/23 04:57:31;;;;;;;5.68;2.28;;;13.10;99.90;;;;;;4996430;28;20022;-74
2021/06/23 04:59:57;;;;;;;4.30;2.58;;;13.10;99.90;;;;;;5012208;28;20069;-74
2021/06/23 05:02:22;;;;;;;5.13;2.15;;;13.10;99.90;;;;;;4995766;28;20058;-74
2021/06/23 05:04:48;;;;;;;4.72;1.92;;;13.20;99.90;;;;;;5013547;28;20435;-75
2021/06/23 05:07:14;;;;;;;4.50;2.40;;;13.20;99.90;;;;;;5013647;28;20406;-74
2021/06/23 05:09:40;;;;;;;4.93;2.67;;;13.30;99.90;;;;;;5013266;28;20032;-75
2021/06/23 05:12:07;;;;;;;9.35;3.33;;;13.30;99.90;;;;;;5013307;28;20084;-75
2021/06/23 05:14:33;;;;;;;6.60;2.10;;;13.40;99.90;;;;;;5013383;28;20077;-75
2021/06/23 05:16:59;;;;;;;11.00;3.58;;;13.50;99.90;;;;;;5013056;28;20049;-75
2021/06/23 05:19:25;;;;;;;7.60;2.20;;;13.50;99.90;;;;;;4995574;28;20025;-75
2021/06/23 05:21:51;;;;;;;6.70;1.73;;;13.60;99.90;;;;;;5013543;28;20029;-76
2021/06/23 05:24:17;;;;;;;13.77;3.55;;;13.60;99.90;;;;;;5014449;28;20060;-75
2021/06/23 05:26:43;;;;;;;6.40;1.80;;;13.60;99.90;;;;;;5013925;28;20064;-75
2021/06/23 05:29:09;;;;;;;2.65;1.60;;;13.60;99.90;;;;;;4995721;28;20441;-74
2021/06/23 05:31:35;;;;;;;7.38;2.20;;;13.70;99.90;;;;;;5011923;28;20025;-75
2021/06/23 05:34:00;;;;;;;6.03;1.85;;;13.70;99.90;;;;;;5012998;28;20463;-76
2021/06/23 05:36:26;;;;;;;7.10;1.77;;;13.70;99.90;;;;;;5013276;28;20033;-77
2021/06/23 05:38:53;;;;;;;5.68;1.60;;;13.90;99.90;;;;;;5012838;28;20022;-76
2021/06/23 05:41:19;;;;;;;2.83;1.25;;;14.00;99.90;;;;;;5012857;28;20053;-77
2021/06/23 05:43:45;;;;;;;3.42;2.03;;;14.00;99.90;;;;;;5014976;28;20383;-76
2021/06/23 05:46:11;;;;;;;4.65;1.98;;;14.10;99.90;;;;;;5016394;28;20022;-76
2021/06/23 05:48:37;;;;;;;4.68;1.27;;;14.20;99.90;;;;;;5016542;28;20018;-76
2021/06/23 05:51:05;;;;;;;4.50;1.30;;;14.20;99.90;;;;;;5016447;28;20364;-76
2021/06/23 05:53:30;;;;;;;5.53;2.05;;;14.20;99.90;;;;;;5016181;28;20018;-77
2021/06/23 05:55:56;;;;;;;4.82;1.02;;;14.40;99.90;;;;;;4998562;28;20037;-77
2021/06/23 05:58:23;;;;;;;3.90;1.15;;;14.40;99.90;;;;;;5015894;28;20018;-77
2021/06/23 06:00:49;;;;;;;3.75;0.70;;;14.40;99.90;;;;;;4998462;28;20548;-77
2021/06/23 06:03:14;;;;;;;4.95;0.63;;;14.50;99.90;;;;;;5016039;28;20018;-76
2021/06/23 06:05:40;;;;;;;4.50;0.75;;;14.60;99.90;;;;;;4998386;28;20068;-77
2021/06/23 06:08:05;;;;;;;6.85;0.52;;;14.60;99.90;;;;;;5016180;28;20497;-76
2021/06/23 06:10:33;;;;;;;9.07;1.50;;;14.70;99.90;;;;;;5018741;28;20105;-76
2021/06/23 06:12:59;;;;;;;7.53;0.52;;;14.80;99.90;;;;;;5021634;28;20071;-76
2021/06/23 06:15:24;;;;;;;4.90;0.52;;;14.80;99.90;;;;;;5031333;28;20033;-76
2021/06/23 06:17:50;;;;;;;3.42;0.52;;;14.90;99.90;;;;;;5034728;28;20021;-77
2021/06/23 06:20:16;;;;;;;3.90;0.52;;;15.00;99.90;;;;;;5018465;28;20490;-77
2021/06/23 06:22:41;;;;;;;2.13;0.30;;;15.00;99.90;;;;;;5023254;28;20024;-76
2021/06/23 06:25:08;;;;;;;2.15;0.60;;;15.10;99.90;;;;;;5032944;28;20041;-76
2021/06/23 06:27:33;;;;;;;4.55;0.82;;;15.10;99.90;;;;;;5035467;28;20100;-77
2021/06/23 06:29:59;;;;;;;3.15;0.40;;;15.20;99.90;;;;;;5050021;22;20449;-75
2021/06/23 06:32:25;;;;;;;5.43;0.30;;;15.20;99.90;;;;;;5013393;28;20029;-77
2021/06/23 06:34:50;;;;;;;4.35;0.52;;;15.30;99.90;;;;;;5025638;28;20033;-76
2021/06/23 06:37:16;;;;;;;4.15;0.20;;;15.40;99.90;;;;;;5033156;28;20032;-75
2021/06/23 06:39:42;;;;;;;5.25;0.60;;;15.50;99.90;;;;;;5016828;28;20034;-75
2021/06/23 06:42:07;;;;;;;2.33;1.15;;;15.60;99.90;;;;;;4981562;28;20117;-75
2021/06/23 06:44:34;;;;;;;3.60;0.63;;;15.70;99.90;;;;;;4995577;28;20030;-76
2021/06/23 06:47:00;;;;;;;4.18;0.20;;;15.70;99.90;;;;;;4997107;28;20498;-75
2021/06/23 06:49:28;;;;;;;3.92;0.22;;;15.80;99.90;;;;;;5014994;28;20044;-76
2021/06/23 06:51:57;;;;;;;4.85;0.55;;;15.90;99.90;;;;;;5015085;28;20025;-74
2021/06/23 06:54:24;;;;;;;3.40;0.25;;;15.90;99.90;;;;;;5007131;28;20069;-75
2021/06/23 06:56:50;;;;;;;2.20;0.50;;;16.00;99.90;;;;;;5009727;28;20030;-76
2021/06/23 06:59:18;;;;;;;1.17;0.52;;;16.00;99.90;;;;;;4995584;28;20022;-76
2021/06/23 07:01:43;;;;;;;2.83;0.63;;;16.00;99.90;;;;;;4986766;28;20022;-74
2021/06/23 07:04:09;;;;;;;3.92;0.45;;;16.10;99.90;;;;;;4997780;28;20399;-74
2021/06/23 07:06:34;;;;;;;5.22;0.17;;;16.20;99.90;;;;;;5016260;28;20022;-73
2021/06/23 07:09:00;;;;;;;4.85;0.00;;;16.20;99.90;;;;;;5016320;28;20057;-74
2021/06/23 07:11:25;;;;;;;5.30;0.88;;;16.10;99.90;;;;;;5016407;28;20022;-73
2021/06/23 07:13:51;;;;;;;7.78;0.63;;;16.10;99.90;;;;;;5015606;28;20132;-73
2021/06/23 07:16:17;;;;;;;2.53;0.13;;;16.20;99.90;;;;;;5015157;28;20041;-72
2021/06/23 07:18:43;;;;;;;5.68;0.13;;;16.30;99.90;;;;;;5014966;28;20018;-72
2021/06/23 07:21:09;;;;;;;5.07;0.38;;;16.40;99.90;;;;;;5014803;28;20490;-73
2021/06/23 07:23:35;;;;;;;1.80;0.40;;;16.50;99.90;;;;;;5013602;28;20014;-72
2021/06/23 07:26:00;;;;;;;5.57;0.88;;;16.60;99.90;;;;;;4997607;28;20029;-73
2021/06/23 07:28:40;;;;;;;3.25;0.43;;;16.70;99.90;;;;;;5014874;28;20065;-71
2021/06/23 07:31:07;;;;;;;6.53;0.38;;;16.80;99.90;;;;;;5014843;28;20105;-71
2021/06/23 07:33:34;;;;;;;3.65;0.40;;;16.80;99.90;;;;;;4997136;28;20021;-71
2021/06/23 07:38:43;;;;;;;3.20;0.30;;;16.80;99.90;;;;;;5004850;28;20129;-72
2021/06/23 07:41:09;;;;;;;4.13;0.20;;;16.90;99.90;;;;;;4977603;28;20054;-72
2021/06/23 07:43:36;;;;;;;4.80;0.20;;;16.90;99.90;;;;;;5003478;28;20068;-72
2021/06/23 07:46:03;;;;;;;3.92;0.20;;;16.80;99.90;;;;;;4990810;28;20391;-71
2021/06/23 07:48:32;;;;;;;2.10;0.00;;;16.80;99.90;;;;;;4995173;28;20022;-72
2021/06/23 07:51:13;;;;;;;4.03;0.00;;;17.00;99.90;;;;;;4994858;28;20053;-71
2021/06/23 08:10:08;;;;;;;2.40;0.17;;;18.80;99.90;;;;;;4994085;28;20041;-70
2021/06/23 08:12:50;;;;;;;4.55;0.00;;;18.90;99.30;;;;;;4976628;28;20048;-70
2021/06/23 08:15:16;;;;;;;3.92;0.22;;;19.00;97.10;;;;;;4995099;28;20069;-71
2021/06/23 08:17:41;;;;;;;4.03;0.03;;;18.90;98.30;;;;;;4993957;28;20034;-71
2021/06/23 08:20:08;;;;;;;4.32;0.00;;;19.00;96.20;;;;;;4976697;28;20383;-70
2021/06/23 08:22:33;;;;;;;1.15;0.00;;;19.10;98.60;;;;;;4994322;28;20035;-70
2021/06/23 08:24:59;;;;;;;4.20;0.47;;;19.30;98.30;;;;;;5014159;28;20525;-72
2021/06/23 08:27:25;;;;;;;5.43;0.20;;;19.50;97.30;;;;;;5009839;28;20498;-73
2021/06/23 08:29:50;;;;;;;2.25;0.00;;;19.50;96.30;;;;;;4994442;28;20034;-71
2021/06/23 08:32:16;;;;;;;4.22;0.20;;;19.40;94.10;;;;;;4976648;28;20026;-71
2021/06/23 08:34:41;;;;;;;2.28;0.08;;;19.20;94.70;;;;;;4994432;28;20031;-71
2021/06/23 08:37:07;;;;;;;3.45;0.22;;;18.90;94.10;;;;;;4994930;28;20476;-73
2021/06/23 08:39:32;;;;;;;4.00;0.00;;;18.50;94.90;;;;;;4976712;28;20029;-71
2021/06/23 08:41:58;;;;;;;2.33;0.17;;;18.30;95.70;;;;;;4976371;28;20030;-70
2021/06/23 08:44:24;;;;;;;2.83;0.63;;;18.00;97.00;;;;;;4994883;28;20154;-72
2021/06/23 08:46:51;;;;;;;7.05;1.30;;;17.80;98.40;;;;;;4977732;28;20023;-73
2021/06/23 08:49:18;;;;;;;2.20;0.10;;;17.70;97.70;;;;;;4989733;28;20029;-71
2021/06/23 08:51:44;;;;;;;6.25;0.30;;;17.60;99.90;;;;;;5005942;28;20033;-72
2021/06/23 08:54:10;;;;;;;2.15;0.10;;;17.60;98.50;;;;;;4993965;28;20030;-72
2021/06/23 08:56:37;;;;;;;4.63;0.40;;;17.70;99.90;;;;;;5002121;28;20046;-72
2021/06/23 08:59:03;;;;;;;1.48;0.00;;;17.90;98.50;;;;;;4993730;28;20042;-72
2021/06/23 09:01:31;;;;;;;0.30;0.20;;;17.00;99.10;;;;;;4993807;28;20033;-72
2021/06/23 09:04:04;;;;;;;3.40;0.00;;;18.10;94.70;;;;;;4994613;28;20054;-71
2021/06/23 09:06:46;;;;;;;2.20;0.13;;;18.10;95.00;;;;;;5001450;28;20387;-71
2021/06/23 09:09:21;;;;;;;4.15;0.10;;;18.50;97.10;;;;;;4996122;28;20026;-73
2021/06/23 09:11:48;;;;;;;0.90;0.10;;;18.90;98.20;;;;;;4998868;28;20042;-71
2021/06/23 09:14:16;;;;;;;2.45;0.30;;;18.90;92.80;;;;;;4993916;28;20383;-73
2021/06/23 09:17:11;;;;;;;7.70;0.85;;;18.70;93.60;;;;;;5000545;28;20034;-71
2021/06/23 09:19:42;;;;;;;3.50;0.30;;;18.60;95.20;;;;;;5016566;28;20094;-70
2021/06/23 09:22:36;;;;;;;2.83;0.00;;;18.50;96.00;;;;;;5017460;28;20026;-73
2021/06/23 09:25:10;;;;;;;5.43;0.25;;;18.40;96.00;;;;;;4999678;28;20498;-73
2021/06/23 09:27:44;;;;;;;1.33;0.10;;;18.30;94.00;;;;;;5016906;28;20054;-73
2021/06/23 09:30:39;;;;;;;6.72;0.10;;;18.20;97.00;;;;;;5016859;28;20491;-73
2021/06/23 09:33:19;;;;;;;1.60;0.10;;;18.20;95.20;;;;;;5016117;28;20022;-74
2021/06/23 09:35:48;;;;;;;7.18;0.75;;;18.20;94.70;;;;;;4997495;28;20026;-71
2021/06/23 09:38:36;;;;;;;1.75;0.20;;;18.40;94.80;;;;;;5015674;28;20030;-71
2021/06/23 09:41:06;;;;;;;4.63;0.13;;;18.40;96.00;;;;;;4998754;28;20026;-71
2021/06/23 09:43:39;;;;;;;6.25;0.75;;;18.60;96.80;;;;;;5016357;28;20041;-72
2021/06/23 09:46:26;;;;;;;5.07;0.35;;;18.80;97.30;;;;;;4997022;28;20025;-72
2021/06/23 09:49:15;;;;;;;3.53;0.00;;;19.10;97.20;;;;;;5007460;28;20069;-71
2021/06/23 09:51:52;;;;;;;6.93;0.73;;;19.30;95.00;;;;;;4997061;28;20026;-71
2021/06/23 09:54:21;;;;;;;4.45;0.00;;;19.50;94.10;;;;;;4996610;28;20058;-71
2021/06/23 09:56:47;;;;;;;2.53;0.13;;;19.90;92.40;;;;;;4980237;28;20022;-73
2021/06/23 09:59:34;;;;;;;3.28;0.10;;;20.20;92.60;;;;;;4996543;28;20048;-73
2021/06/23 10:02:00;;;;;;;7.25;0.88;;;20.50;91.80;;;;;;4996815;28;20030;-72
2021/06/23 10:04:36;;;;;;;1.02;0.00;;;20.50;89.40;;;;;;5011818;28;20036;-72
2021/06/23 10:07:03;;;;;;;1.25;0.20;;;20.90;89.70;;;;;;5015184;28;20042;-73
2021/06/23 10:09:31;;;;;;;0.40;0.00;;;20.90;86.50;;;;;;5015441;28;20026;-72
2021/06/23 10:12:02;;;;;;;2.40;0.00;;;21.10;88.70;;;;;;5015510;28;20025;-72
2021/06/23 10:14:30;;;;;;;1.25;0.00;;;21.10;83.90;;;;;;5015973;28;20022;-72
2021/06/23 10:17:00;;;;;;;2.70;0.05;;;20.80;81.10;;;;;;5014123;28;20482;-74
2021/06/23 10:19:27;;;;;;;5.13;0.98;;;20.40;83.10;;;;;;4998715;28;20018;-72
2021/06/23 10:21:54;;;;;;;3.67;0.73;;;20.60;88.60;;;;;;4998681;28;20038;-72
2021/06/23 10:24:19;;;;;;;2.55;0.30;;;20.50;82.80;;;;;;4998742;28;20105;-73
2021/06/23 10:26:51;;;;;;;4.85;0.38;;;20.60;90.00;;;;;;4987018;28;20109;-73
2021/06/23 10:29:30;;;;;;;4.68;0.35;;;20.40;85.30;;;;;;4998409;28;20030;-74
2021/06/23 10:31:56;;;;;;;3.15;0.17;;;20.50;88.90;;;;;;4997485;28;20057;-74
2021/06/23 10:34:23;;;;;;;1.65;0.10;;;20.80;86.60;;;;;;4997525;28;20101;-74
2021/06/23 10:36:49;;;;;;;3.60;0.00;;;21.10;86.00;;;;;;4997443;28;20026;-77
2021/06/23 10:39:16;;;;;;;1.17;0.20;;;21.80;87.40;;;;;;4996208;28;20077;-74
2021/06/23 10:41:48;;;;;;;3.72;0.10;;;22.30;82.80;;;;;;4995990;28;20032;-75
2021/06/23 10:44:22;;;;;;;2.85;0.45;;;22.60;76.20;;;;;;4996668;28;20053;-73
2021/06/23 10:46:51;;;;;;;4.45;1.17;;;22.70;73.40;;;;;;4996373;28;20026;-74
2021/06/23 10:49:37;;;;;;;2.78;0.22;;;22.80;73.70;;;;;;4996513;28;20077;-73
2021/06/23 10:52:20;;;;;;;1.88;0.20;;;23.10;78.60;;;;;;5004108;28;20399;-74
2021/06/23 10:55:00;;;;;;;3.42;0.10;;;23.10;68.90;;;;;;5016160;28;20032;-73
2021/06/23 10:57:47;;;;;;;1.20;0.00;;;22.70;69.00;;;;;;5005820;28;20105;-75
2021/06/23 11:00:21;;;;;;;2.22;0.45;;;22.60;75.30;;;;;;4995717;28;20049;-74
2021/06/23 11:02:58;;;;;;;0.90;0.10;;;22.80;72.20;;;;;;4977995;28;20030;-76
2021/06/23 11:05:31;;;;;;;6.05;0.32;;;23.00;75.50;;;;;;4997411;28;20630;-75
2021/06/23 11:07:58;;;;;;;3.13;0.00;;;23.10;72.20;;;;;;4995502;28;20025;-74
2021/06/23 11:10:38;;;;;;;2.38;0.00;;;23.00;74.80;;;;;;4997322;28;20103;-74
2021/06/23 11:13:06;;;;;;;1.67;0.00;;;23.00;72.50;;;;;;5014827;28;20435;-74
2021/06/23 11:15:31;;;;;;;4.07;0.10;;;22.80;73.90;;;;;;5014807;28;20639;-77
2021/06/23 11:18:15;;;;;;;2.85;0.65;;;22.40;70.20;;;;;;5015816;28;20026;-78
2021/06/23 11:20:52;;;;;;;1.15;0.13;;;21.50;68.90;;;;;;4996012;28;20030;-76
2021/06/23 11:23:48;;;;;;;3.78;0.28;;;21.10;72.00;;;;;;4997789;28;20040;-77
2021/06/23 11:26:23;;;;;;;1.60;0.20;;;20.80;76.90;;;;;;5008623;28;20064;-78
2021/06/23 11:28:55;;;;;;;3.47;0.00;;;20.80;75.00;;;;;;5002092;28;20125;-77
2021/06/23 11:31:38;;;;;;;9.70;0.20;;;20.70;74.90;;;;;;5015273;28;20112;-76
2021/06/23 11:34:04;;;;;;;2.65;0.20;;;20.50;74.10;;;;;;4998024;28;20025;-77
2021/06/23 11:36:29;;;;;;;3.03;0.00;;;20.40;73.80;;;;;;4998053;28;20076;-77
2021/06/23 11:38:56;;;;;;;2.50;0.00;;;20.30;75.00;;;;;;5015719;28;20048;-77
2021/06/23 11:41:22;;;;;;;5.57;0.20;;;20.50;77.50;;;;;;5015033;28;20037;-77
2021/06/23 11:43:48;;;;;;;4.00;0.10;;;20.40;75.00;;;;;;4985994;28;20022;-77
2021/06/23 11:46:14;;;;;;;1.92;0.55;;;20.50;77.90;;;;;;5007177;28;20091;-77
2021/06/23 11:48:41;;;;;;;3.55;0.00;;;20.50;74.80;;;;;;4985107;28;20053;-77
2021/06/23 11:51:08;;;;;;;1.38;0.30;;;20.30;75.60;;;;;;4999303;28;20468;-76
2021/06/23 11:53:34;;;;;;;0.47;0.00;;;20.30;77.70;;;;;;4995987;28;20239;-77
2021/06/23 11:56:00;;;;;;;2.10;0.00;;;20.40;75.50;;;;;;5002236;28;20054;-77
2021/06/23 11:58:25;;;;;;;5.50;0.32;;;20.50;78.90;;;;;;5007816;28;20502;-77
2021/06/23 12:00:51;;;;;;;1.58;0.00;;;20.60;76.30;;;;;;5013512;28;20090;-77
2021/06/23 12:03:17;;;;;;;2.20;0.10;;;20.80;78.60;;;;;;5012426;28;20053;-77
2021/06/23 12:05:48;;;;;;;2.38;0.20;;;21.00;77.20;;;;;;5006707;28;20026;-77
2021/06/23 12:08:15;;;;;;;1.52;0.20;;;21.20;73.80;;;;;;4985577;28;20410;-77
2021/06/23 12:10:41;;;;;;;0.63;0.00;;;21.00;71.50;;;;;;4993947;28;20093;-77
2021/06/23 12:13:11;;;;;;;4.22;0.47;;;21.00;73.80;;;;;;4997758;28;20076;-77
2021/06/23 12:15:37;;;;;;;1.77;0.13;;;21.00;73.60;;;;;;4980467;28;20014;-77
2021/06/23 12:18:06;;;;;;;2.97;0.10;;;21.10;76.40;;;;;;4995951;28;20022;-77
2021/06/23 12:20:34;;;;;;;3.20;0.00;;;21.10;77.50;;;;;;4997201;28;20442;-77
2021/06/23 12:23:04;;;;;;;1.27;0.20;;;21.10;75.90;;;;;;5015530;28;20026;-78
2021/06/23 12:25:32;;;;;;;1.70;0.00;;;21.00;76.50;;;;;;4992884;28;20067;-77
2021/06/23 12:27:58;;;;;;;;;;;21.00;78.70;;;;;;5015331;28;20053;-77
2021/06/23 12:30:27;;;;;;;2.92;0.00;;;21.00;77.70;;;;;;4992674;28;19920;-77
2021/06/23 12:32:54;;;;;;;3.22;0.17;;;20.70;74.90;;;;;;5034847;28;20029;-77
2021/06/23 12:35:20;;;;;;;1.75;0.10;;;20.60;74.40;;;;;;5034880;28;20467;-77
2021/06/23 12:37:45;;;;;;;1.48;0.00;;;20.60;78.10;;;;;;5017171;28;20024;-77
2021/06/23 12:40:11;;;;;;;1.55;0.08;;;20.40;74.50;;;;;;5034998;28;20364;-76
2021/06/23 12:42:37;;;;;;;1.98;0.00;;;20.40;78.90;;;;;;5016673;28;20037;-76
2021/06/23 12:45:06;;;;;;;0.77;0.00;;;20.40;79.10;;;;;;5034384;28;20029;-77
2021/06/23 12:47:37;;;;;;;1.85;0.00;;;20.60;80.70;;;;;;5034773;28;20427;-76
2021/06/23 12:50:05;;;;;;;0.52;0.00;;;20.50;77.00;;;;;;5034357;28;20049;-76
2021/06/23 12:52:30;;;;;;;5.20;0.52;;;20.50;78.90;;;;;;5036618;28;20459;-76
2021/06/23 12:54:56;;;;;;;1.75;0.00;;;20.70;78.80;;;;;;5014287;28;20025;-76
2021/06/23 12:57:22;;;;;;;1.20;0.00;;;20.80;79.60;;;;;;5001081;28;20030;-76
2021/06/23 12:59:48;;;;;;;1.23;0.10;;;20.80;77.70;;;;;;5019039;28;20022;-76
2021/06/23 13:02:14;;;;;;;0.93;0.10;;;20.70;76.90;;;;;;5018156;28;20030;-76
2021/06/23 13:04:41;;;;;;;3.95;0.10;;;20.90;79.80;;;;;;5019356;28;20057;-77
2021/06/23 13:07:06;;;;;;;3.45;0.22;;;20.90;73.00;;;;;;5019164;28;20044;-77
2021/06/23 13:09:32;;;;;;;2.30;0.10;;;20.70;74.40;;;;;;5019348;28;20026;-77
2021/06/23 13:11:58;;;;;;;2.63;0.25;;;20.70;77.00;;;;;;5003515;28;20026;-77
2021/06/23 13:14:23;;;;;;;2.60;0.08;;;20.70;76.70;;;;;;4999146;28;20026;-77